This is the latest recevied weather packets stored in our database for station/object NK0Z-13. If no packets are shown the sender has not sent any weather packets the latest 10 day(s).
| Time | Temp. | Humidity | Pressure | Rain* | Wind** | Luminosity | Snow |
|---|---|---|---|---|---|---|---|
| 1777614430 | 6.67° C | 85% | 1022 hPa | 0 mm | - | 0 W/m² | - |
| 1777613827 | 6.11° C | 87% | 1022.1 hPa | 0 mm | - | 0 W/m² | - |
| 1777613226 | 6.11° C | 85% | 1022 hPa | 0 mm | - | 0 W/m² | - |
| 1777612624 | 6.67° C | 85% | 1021.8 hPa | 0 mm | - | 0 W/m² | - |
| 1777612021 | 7.78° C | 83% | 1021.8 hPa | 0 mm | - | 0 W/m² | - |
| 1777611419 | 7.22° C | 84% | 1021.7 hPa | 0 mm | - | 0 W/m² | - |
| 1777610817 | 7.78° C | 84% | 1021.6 hPa | 0 mm | - | 0 W/m² | - |
| 1777610213 | 7.78° C | 83% | 1021.4 hPa | 0 mm | - | 0 W/m² | - |
| 1777609612 | 8.33° C | 82% | 1021.5 hPa | 0 mm | - | 0 W/m² | - |
| 1777609013 | 8.33° C | 82% | 1021.5 hPa | 0 mm | - | 0 W/m² | - |
| 1777608413 | 8.33° C | 82% | 1021.3 hPa | 0 mm | - | 0 W/m² | - |
| 1777607813 | 8.33° C | 80% | 1021.5 hPa | 0 mm | - | 0 W/m² | - |
| 1777607211 | 8.89° C | 78% | 1021.4 hPa | 0 mm | - | 0 W/m² | - |
| 1777606609 | 9.44° C | 77% | 1021.2 hPa | 0 mm | - | 0 W/m² | - |
| 1777606006 | 9.44° C | 76% | 1021.1 hPa | 0 mm | - | 0 W/m² | - |
| 1777605401 | 10° C | 75% | 1021.3 hPa | 0 mm | - | 0 W/m² | - |
| 1777604799 | 10° C | 75% | 1021.1 hPa | 0 mm | - | 0 W/m² | - |
| 1777604196 | 9.44° C | 78% | 1021 hPa | 0 mm | - | 0 W/m² | - |
| 1777603595 | 9.44° C | 78% | 1020.7 hPa | 0 mm | - | 0 W/m² | - |
| 1777602992 | 8.89° C | 80% | 1020.3 hPa | 0 mm | - | 0 W/m² | - |
| 1777602389 | 9.44° C | 77% | 1020 hPa | 0 mm | - | 0 W/m² | - |
| 1777601786 | 9.44° C | 78% | 1020.3 hPa | 0 mm | - | 0 W/m² | - |
| 1777601183 | 9.44° C | 78% | 1020 hPa | 0 mm | - | 0 W/m² | - |
| 1777600582 | 10° C | 75% | 1019.7 hPa | 0 mm | - | 0 W/m² | - |
| 1777599980 | 10.56° C | 73% | 1019.8 hPa | 0 mm | - | 0 W/m² | - |
* Rain latest hour (hover to see other rain measurements)
** Current wind speed in m/s (hover to see current wind gust speed)